Allendale, California
Current Conditions -  °F | °C
As of 12:00 PM on Friday 19 Dec 2014 (Local Time) from KVCB Reporting Station
Light Rain Light Rain  
Wind Chill: 52°   Ceiling: 900
Heat Index: 52°   Visibility: 1.7mi
Dew Point: 51°   Wind: 6mph
Humidity: 97%   Direction: 70°ENE
Pressure: 30.17"   Gusts: NA
Location:  38.4195°N, 122.026°W
Report Text: KVCB 192000Z AUTO 07005KT 1 3/4SM -RA BR BKN009 OVC013 11/11 A3017 RMK AO2 CIG 003V012 P0001 T01110106 TSNO
Loading
Personal Weather Stations






























Interactive Weather Map New forecast layout! Learn more

10-Day Weather Forecast

Advertisements
Track Severe Weather on mobile